createdAt,value
2022-11-28T00:00:59.527Z,3.1
2022-11-28T00:01:59.616Z,3.1
2022-11-28T00:02:59.717Z,3.1
2022-11-28T00:03:59.639Z,3.1
2022-11-28T00:04:59.664Z,3.13
2022-11-28T00:05:59.683Z,3.13
2022-11-28T00:06:59.720Z,3.13
2022-11-28T00:07:59.796Z,3.16
2022-11-28T00:08:59.772Z,3.18
2022-11-28T00:09:59.813Z,3.19
2022-11-28T00:10:59.868Z,3.19
2022-11-28T00:11:59.893Z,3.19
2022-11-28T00:12:59.898Z,3.19
2022-11-28T00:13:59.938Z,3.14
2022-11-28T00:14:59.976Z,3.14
2022-11-28T00:16:00.097Z,3.14
2022-11-28T00:17:00.068Z,3.14
2022-11-28T00:18:00.079Z,3.14
2022-11-28T00:19:00.101Z,3.14
2022-11-28T00:20:00.132Z,3.15
2022-11-28T00:21:00.161Z,3.14
2022-11-28T00:22:00.220Z,3.14
2022-11-28T00:23:00.259Z,3.13
2022-11-28T00:24:00.279Z,3.13
2022-11-28T00:25:00.303Z,3.13
2022-11-28T00:26:00.336Z,3.14
2022-11-28T00:27:00.378Z,3.13
2022-11-28T00:28:00.426Z,3.14
2022-11-28T00:29:00.450Z,3.1
2022-11-28T00:30:00.472Z,3.07
2022-11-28T00:31:00.500Z,3.08
2022-11-28T00:32:00.548Z,3.07
2022-11-28T00:33:00.587Z,3.08
2022-11-28T00:34:00.598Z,3.08
2022-11-28T00:35:00.638Z,3.06
2022-11-28T00:36:00.662Z,3.07
2022-11-28T00:37:00.687Z,3.06
2022-11-28T00:38:00.756Z,3.06
2022-11-28T00:39:00.751Z,3.06
2022-11-28T00:40:00.788Z,3.06
2022-11-28T00:41:00.842Z,3.07
2022-11-28T00:42:00.853Z,3.06
2022-11-28T00:43:00.865Z,3.06
2022-11-28T00:44:00.899Z,3.07
2022-11-28T00:45:00.941Z,3.06
2022-11-28T00:46:01.040Z,3.06
2022-11-28T00:47:01.014Z,3.06
2022-11-28T00:48:01.040Z,3.06
2022-11-28T00:49:01.067Z,3.05
2022-11-28T00:50:01.129Z,3.05
2022-11-28T00:51:01.130Z,3.05
2022-11-28T00:52:01.148Z,3.05
2022-11-28T00:53:01.180Z,3.03
2022-11-28T00:54:01.209Z,3.03
2022-11-28T00:55:01.261Z,2.99
2022-11-28T00:56:01.265Z,2.98
2022-11-28T00:57:01.309Z,2.99
2022-11-28T00:58:01.329Z,2.98
2022-11-28T00:59:01.382Z,2.99
2022-11-28T01:00:01.388Z,2.99
2022-11-28T01:01:01.457Z,2.98
2022-11-28T01:02:01.474Z,2.99
2022-11-28T01:03:01.490Z,2.98
2022-11-28T01:04:01.516Z,2.98
2022-11-28T01:05:01.552Z,2.95
2022-11-28T01:06:01.608Z,2.99
2022-11-28T01:07:01.621Z,3
2022-11-28T01:08:01.653Z,2.98
2022-11-28T01:09:01.685Z,2.98
2022-11-28T01:10:01.744Z,2.99
2022-11-28T01:11:01.773Z,2.99
2022-11-28T01:12:01.786Z,2.98
2022-11-28T01:13:01.827Z,2.98
2022-11-28T01:14:01.852Z,2.97
2022-11-28T01:15:01.887Z,2.96
2022-11-28T01:16:02.025Z,2.96
2022-11-28T01:17:01.950Z,2.97
2022-11-28T01:18:01.981Z,2.97
2022-11-28T01:19:02.010Z,2.96
2022-11-28T01:20:02.069Z,2.94
2022-11-28T01:21:02.105Z,2.97
2022-11-28T01:22:02.106Z,2.95
2022-11-28T01:23:02.138Z,2.92
2022-11-28T01:24:02.176Z,2.92
2022-11-28T01:25:02.198Z,2.92
2022-11-28T01:26:02.259Z,2.9
2022-11-28T01:27:02.283Z,2.95
2022-11-28T01:28:02.303Z,2.96
2022-11-28T01:29:02.325Z,2.96
2022-11-28T01:30:02.363Z,2.96
2022-11-28T01:31:02.490Z,2.95
2022-11-28T01:32:02.475Z,2.95
2022-11-28T01:33:02.449Z,2.95
2022-11-28T01:34:02.480Z,2.91
2022-11-28T01:35:02.523Z,2.92
2022-11-28T01:36:02.538Z,2.93
2022-11-28T01:37:02.560Z,2.92
2022-11-28T01:38:02.596Z,2.9
2022-11-28T01:39:02.626Z,2.91
2022-11-28T01:40:02.678Z,2.88
2022-11-28T01:41:02.679Z,2.88
2022-11-28T01:42:02.714Z,2.88
2022-11-28T01:43:02.750Z,2.9
2022-11-28T01:44:02.799Z,2.89
2022-11-28T01:45:02.848Z,2.89
2022-11-28T01:46:02.877Z,2.89
2022-11-28T01:47:02.937Z,2.9
2022-11-28T01:48:02.924Z,2.88
2022-11-28T01:49:02.957Z,2.88
2022-11-28T01:50:02.988Z,2.85
2022-11-28T01:51:03.040Z,2.85
2022-11-28T01:52:03.048Z,2.88
2022-11-28T01:53:03.069Z,2.9
2022-11-28T01:54:03.103Z,2.88
2022-11-28T01:55:03.139Z,2.91
2022-11-28T01:56:03.204Z,2.9
2022-11-28T01:57:03.232Z,2.9
2022-11-28T01:58:03.243Z,2.83
2022-11-28T01:59:03.268Z,2.84
2022-11-28T02:00:03.297Z,2.82
2022-11-28T02:01:03.348Z,2.82
2022-11-28T02:02:03.439Z,2.82
2022-11-28T02:03:03.404Z,2.83
2022-11-28T02:04:03.423Z,2.83
2022-11-28T02:05:03.458Z,2.83
2022-11-28T02:06:03.495Z,2.83
2022-11-28T02:07:03.506Z,2.82
2022-11-28T02:08:03.539Z,2.82
2022-11-28T02:09:03.570Z,2.82
2022-11-28T02:10:03.607Z,2.82
2022-11-28T02:11:03.639Z,2.82
2022-11-28T02:12:03.664Z,2.83
2022-11-28T02:13:03.686Z,2.83
2022-11-28T02:14:03.717Z,2.83
2022-11-28T02:15:03.741Z,2.81
2022-11-28T02:16:03.850Z,2.81
2022-11-28T02:17:03.812Z,2.81
2022-11-28T02:18:03.874Z,2.82
2022-11-28T02:19:03.879Z,2.81
2022-11-28T02:20:03.908Z,2.81
2022-11-28T02:21:03.944Z,2.81
2022-11-28T02:22:04.006Z,2.81
2022-11-28T02:23:04.005Z,2.81
2022-11-28T02:24:04.039Z,2.81
2022-11-28T02:25:04.068Z,2.82
2022-11-28T02:26:04.098Z,2.81
2022-11-28T02:27:04.153Z,2.74
2022-11-28T02:28:04.166Z,2.74
2022-11-28T02:29:04.191Z,2.74
2022-11-28T02:30:04.221Z,2.74
2022-11-28T02:31:04.298Z,2.73
2022-11-28T02:32:04.298Z,2.69
2022-11-28T02:33:04.317Z,2.69
2022-11-28T02:34:04.362Z,2.69
2022-11-28T02:35:04.397Z,2.69
2022-11-28T02:36:04.419Z,2.69
2022-11-28T02:37:04.459Z,2.69
2022-11-28T02:38:04.484Z,2.68
2022-11-28T02:39:04.521Z,2.68
2022-11-28T02:40:04.553Z,2.66
2022-11-28T02:41:04.583Z,2.66
2022-11-28T02:42:04.637Z,2.66
2022-11-28T02:43:04.638Z,2.68
2022-11-28T02:44:04.740Z,2.68
2022-11-28T02:45:04.705Z,2.68
2022-11-28T02:46:04.764Z,2.68
2022-11-28T02:47:04.825Z,2.68
2022-11-28T02:48:04.816Z,2.68
2022-11-28T02:49:04.848Z,2.67
2022-11-28T02:50:04.860Z,2.65
2022-11-28T02:51:04.892Z,2.65
2022-11-28T02:52:04.950Z,2.63
2022-11-28T02:53:04.973Z,2.63
2022-11-28T02:54:05.017Z,2.63
2022-11-28T02:55:05.029Z,2.61
2022-11-28T02:56:05.061Z,2.61
2022-11-28T02:57:05.104Z,2.61
2022-11-28T02:58:05.118Z,2.61
2022-11-28T02:59:05.145Z,2.62
2022-11-28T03:00:05.174Z,2.62
2022-11-28T03:01:05.249Z,2.62
2022-11-28T03:02:05.429Z,2.62
2022-11-28T03:03:05.272Z,2.62
2022-11-28T03:04:05.317Z,2.62
2022-11-28T03:05:05.376Z,2.62
2022-11-28T03:06:05.374Z,2.62
2022-11-28T03:07:05.403Z,2.62
2022-11-28T03:08:05.452Z,2.62
2022-11-28T03:09:05.491Z,2.61
2022-11-28T03:10:05.534Z,2.61
2022-11-28T03:11:05.553Z,2.61
2022-11-28T03:12:05.608Z,2.56
2022-11-28T03:13:05.613Z,2.56
2022-11-28T03:14:05.644Z,2.52
2022-11-28T03:15:05.684Z,2.54
2022-11-28T03:16:05.780Z,2.52
2022-11-28T03:17:05.766Z,2.51
2022-11-28T03:18:05.777Z,2.52
2022-11-28T03:19:05.805Z,2.52
2022-11-28T03:20:05.855Z,2.52
2022-11-28T03:21:05.862Z,2.52
2022-11-28T03:22:05.893Z,2.51
2022-11-28T03:23:05.924Z,2.51
2022-11-28T03:24:05.960Z,2.51
2022-11-28T03:25:05.998Z,2.51
2022-11-28T03:26:06.040Z,2.52
2022-11-28T03:27:06.057Z,2.52
2022-11-28T03:28:06.075Z,2.51
2022-11-28T03:29:06.116Z,2.51
2022-11-28T03:30:06.150Z,2.51
2022-11-28T03:31:06.254Z,2.51
2022-11-28T03:32:06.200Z,2.46
2022-11-28T03:33:06.238Z,2.46
2022-11-28T03:34:06.278Z,2.46
2022-11-28T03:35:06.300Z,2.46
2022-11-28T03:36:06.340Z,2.46
2022-11-28T03:37:06.379Z,2.46
2022-11-28T03:38:06.408Z,2.46
2022-11-28T03:39:06.437Z,2.39
2022-11-28T03:40:06.479Z,2.41
2022-11-28T03:41:06.533Z,2.34
2022-11-28T03:42:06.542Z,2.34
2022-11-28T03:43:06.567Z,2.35
2022-11-28T03:44:06.594Z,2.35
2022-11-28T03:45:06.631Z,2.35
2022-11-28T03:46:06.678Z,2.35
2022-11-28T03:47:06.734Z,2.35
2022-11-28T03:48:06.714Z,2.33
2022-11-28T03:49:06.747Z,2.33
2022-11-28T03:50:06.780Z,2.33
2022-11-28T03:51:06.821Z,2.28
2022-11-28T03:52:06.847Z,2.28
2022-11-28T03:53:06.863Z,2.28
2022-11-28T03:54:06.904Z,2.29
2022-11-28T03:55:06.941Z,2.27
2022-11-28T03:56:07.105Z,2.27
2022-11-28T03:57:07.001Z,2.27
2022-11-28T03:58:07.036Z,2.28
2022-11-28T03:59:07.074Z,2.29
2022-11-28T04:00:07.102Z,2.31
2022-11-28T04:01:07.228Z,2.3
2022-11-28T04:02:07.169Z,2.25
2022-11-28T04:03:07.412Z,2.21
2022-11-28T04:04:07.238Z,2.2
2022-11-28T04:05:07.293Z,2.22
2022-11-28T04:06:07.292Z,2.24
2022-11-28T04:07:07.331Z,2.23
2022-11-28T04:08:07.364Z,2.23
2022-11-28T04:09:11.533Z,2.24
2022-11-28T04:10:07.453Z,2.22
2022-11-28T04:11:07.469Z,2.22
2022-11-28T04:12:07.519Z,2.22
2022-11-28T04:13:07.531Z,2.22
2022-11-28T04:14:07.552Z,2.23
2022-11-28T04:15:07.598Z,2.23
2022-11-28T04:16:07.791Z,2.23
2022-11-28T04:17:07.645Z,2.23
2022-11-28T04:18:07.703Z,2.23
2022-11-28T04:19:07.713Z,2.23
2022-11-28T04:20:07.753Z,2.23
2022-11-28T04:21:07.789Z,2.23
2022-11-28T04:22:07.826Z,2.23
2022-11-28T04:23:07.871Z,2.24
2022-11-28T04:24:07.886Z,2.24
2022-11-28T04:25:07.950Z,2.24
2022-11-28T04:26:07.949Z,2.24
2022-11-28T04:27:07.991Z,2.24
2022-11-28T04:28:08.022Z,2.24
2022-11-28T04:29:08.071Z,2.24
2022-11-28T04:30:08.097Z,2.24
2022-11-28T04:31:08.240Z,2.25
2022-11-28T04:32:08.161Z,2.31
2022-11-28T04:33:08.226Z,2.32
2022-11-28T04:34:08.224Z,2.32
2022-11-28T04:35:08.267Z,2.31
2022-11-28T04:36:08.302Z,2.33
2022-11-28T04:37:09.873Z,2.3
2022-11-28T04:38:08.386Z,2.33
2022-11-28T04:39:08.405Z,2.33
2022-11-28T04:40:08.431Z,2.35
2022-11-28T04:41:08.481Z,2.37
2022-11-28T04:42:08.507Z,2.37
2022-11-28T04:43:08.551Z,2.36
2022-11-28T04:44:08.566Z,2.36
2022-11-28T04:45:08.603Z,2.36
2022-11-28T04:46:08.767Z,2.35
2022-11-28T04:47:08.689Z,2.37
2022-11-28T04:48:08.701Z,2.37
2022-11-28T04:49:08.728Z,2.42
2022-11-28T04:50:08.756Z,2.41
2022-11-28T04:51:08.792Z,2.44
2022-11-28T04:52:08.843Z,2.44
2022-11-28T04:53:08.859Z,2.43
2022-11-28T04:54:08.897Z,2.42
2022-11-28T04:55:08.928Z,2.43
2022-11-28T04:56:08.962Z,2.43
2022-11-28T04:57:09.013Z,2.42
2022-11-28T04:58:09.027Z,2.44
2022-11-28T04:59:09.056Z,2.47
2022-11-28T05:00:09.087Z,2.47
2022-11-28T05:01:09.241Z,2.47
2022-11-28T05:02:09.185Z,2.46
2022-11-28T05:03:09.177Z,2.46
2022-11-28T05:04:09.206Z,2.46
2022-11-28T05:05:09.245Z,2.48
2022-11-28T05:06:09.273Z,2.48
2022-11-28T05:07:09.308Z,2.48
2022-11-28T05:08:09.342Z,2.48
2022-11-28T05:09:09.381Z,2.48
2022-11-28T05:10:09.416Z,2.48
2022-11-28T05:11:09.450Z,2.47
2022-11-28T05:12:09.491Z,2.47
2022-11-28T05:13:09.516Z,2.47
2022-11-28T05:14:09.550Z,2.47
2022-11-28T05:15:09.611Z,2.54
2022-11-28T05:16:09.733Z,2.53
2022-11-28T05:17:09.649Z,2.54
2022-11-28T05:18:09.672Z,2.53
2022-11-28T05:19:09.708Z,2.53
2022-11-28T05:20:09.755Z,2.53
2022-11-28T05:21:09.764Z,2.54
2022-11-28T05:22:09.798Z,2.56
2022-11-28T05:23:09.822Z,2.56
2022-11-28T05:24:09.885Z,2.57
2022-11-28T05:25:09.921Z,2.58
2022-11-28T05:26:09.932Z,2.58
2022-11-28T05:27:09.962Z,2.57
2022-11-28T05:28:09.988Z,2.56
2022-11-28T05:29:10.028Z,2.56
2022-11-28T05:30:10.085Z,2.57
2022-11-28T05:31:10.157Z,2.56
2022-11-28T05:32:10.142Z,2.56
2022-11-28T05:33:10.157Z,2.56
2022-11-28T05:34:10.187Z,2.58
2022-11-28T05:35:10.217Z,2.58
2022-11-28T05:36:13.146Z,2.59
2022-11-28T05:37:10.272Z,2.58
2022-11-28T05:38:13.580Z,2.57
2022-11-28T05:39:10.340Z,2.57
2022-11-28T05:40:10.365Z,2.56
2022-11-28T05:41:10.415Z,2.56
2022-11-28T05:42:10.428Z,2.56
2022-11-28T05:43:10.456Z,2.55
2022-11-28T05:44:10.498Z,2.55
2022-11-28T05:45:10.526Z,2.54
2022-11-28T05:46:10.616Z,2.58
2022-11-28T05:47:10.615Z,2.57
2022-11-28T05:48:10.644Z,2.58
2022-11-28T05:49:10.652Z,2.59
2022-11-28T05:50:10.689Z,2.53
2022-11-28T05:51:10.722Z,2.54
2022-11-28T05:52:10.749Z,2.58
2022-11-28T05:53:10.809Z,2.58
2022-11-28T05:54:10.824Z,2.57
2022-11-28T05:55:10.873Z,2.57
2022-11-28T05:56:10.882Z,2.58
2022-11-28T05:57:10.906Z,2.58
2022-11-28T05:58:10.932Z,2.58
2022-11-28T05:59:10.973Z,2.58
2022-11-28T06:00:11.022Z,2.56
2022-11-28T06:01:11.131Z,2.56
2022-11-28T06:02:11.152Z,2.52
2022-11-28T06:03:11.096Z,2.52
2022-11-28T06:04:11.233Z,2.52
2022-11-28T06:05:40.353Z,2.52
2022-11-28T06:06:11.196Z,2.52
2022-11-28T06:07:11.221Z,2.52
2022-11-28T06:08:11.271Z,2.52
2022-11-28T06:09:11.280Z,2.47
2022-11-28T06:10:11.318Z,2.45
2022-11-28T06:11:11.349Z,2.41
2022-11-28T06:12:11.394Z,2.41
2022-11-28T06:13:11.404Z,2.41
2022-11-28T06:14:11.444Z,2.41
2022-11-28T06:15:11.469Z,2.41
2022-11-28T06:16:11.617Z,2.42
2022-11-28T06:17:11.522Z,2.41
2022-11-28T06:18:11.551Z,2.39
2022-11-28T06:19:11.594Z,2.39
2022-11-28T06:20:11.618Z,2.39
2022-11-28T06:21:11.672Z,2.38
2022-11-28T06:22:11.682Z,2.36
2022-11-28T06:23:11.723Z,2.35
2022-11-28T06:24:11.756Z,2.34
2022-11-28T06:25:11.807Z,2.35
2022-11-28T06:26:11.838Z,2.35
2022-11-28T06:27:11.846Z,2.36
2022-11-28T06:28:11.877Z,2.33
2022-11-28T06:29:11.917Z,2.33
2022-11-28T06:30:11.965Z,2.33
2022-11-28T06:31:12.107Z,2.29
2022-11-28T06:32:12.090Z,2.29
2022-11-28T06:33:12.039Z,2.29
2022-11-28T06:34:12.075Z,2.27
2022-11-28T06:35:12.128Z,2.27
2022-11-28T06:36:12.124Z,2.27
2022-11-28T06:37:12.153Z,2.28
2022-11-28T06:38:14.423Z,2.28
2022-11-28T06:39:12.215Z,2.28
2022-11-28T06:40:12.270Z,2.28
2022-11-28T06:41:12.274Z,2.29
2022-11-28T06:42:12.310Z,2.28
2022-11-28T06:43:12.338Z,2.27
2022-11-28T06:44:12.371Z,2.27
2022-11-28T06:45:12.424Z,2.22
2022-11-28T06:46:15.993Z,2.22
2022-11-28T06:47:12.469Z,2.22
2022-11-28T06:48:12.534Z,2.22
2022-11-28T06:49:12.541Z,2.27
2022-11-28T06:50:12.555Z,2.28
2022-11-28T06:51:12.586Z,2.27
2022-11-28T06:52:12.612Z,2.27
2022-11-28T06:53:12.660Z,2.29
2022-11-28T06:54:12.693Z,2.31
2022-11-28T06:55:12.687Z,2.33
2022-11-28T06:56:12.729Z,2.33
2022-11-28T06:57:12.757Z,2.33
2022-11-28T06:58:12.793Z,2.33
2022-11-28T06:59:12.836Z,2.35
2022-11-28T07:00:12.843Z,2.35
2022-11-28T07:01:12.950Z,2.34
2022-11-28T07:02:13.014Z,2.33
2022-11-28T07:03:12.931Z,2.33
2022-11-28T07:04:12.964Z,2.34
2022-11-28T07:05:13.026Z,2.32
2022-11-28T07:06:13.022Z,2.32
2022-11-28T07:07:16.533Z,2.3
2022-11-28T07:08:13.154Z,2.31
2022-11-28T07:09:13.125Z,2.32
2022-11-28T07:10:13.176Z,2.34
2022-11-28T07:11:13.179Z,2.34
2022-11-28T07:12:13.201Z,2.34
2022-11-28T07:13:13.253Z,2.34
2022-11-28T07:14:13.269Z,2.34
2022-11-28T07:15:13.288Z,2.33
2022-11-28T07:16:13.347Z,2.36
2022-11-28T07:17:13.372Z,2.36
2022-11-28T07:18:13.375Z,2.39
2022-11-28T07:19:13.410Z,2.4
2022-11-28T07:20:13.442Z,2.4
2022-11-28T07:21:13.475Z,2.4
2022-11-28T07:22:13.529Z,2.4
2022-11-28T07:23:13.532Z,2.39
2022-11-28T07:24:13.572Z,2.4
2022-11-28T07:25:13.623Z,2.4
2022-11-28T07:26:13.652Z,2.41
2022-11-28T07:27:13.690Z,2.39
2022-11-28T07:28:13.690Z,2.41
2022-11-28T07:29:13.727Z,2.42
2022-11-28T07:30:13.767Z,2.42
2022-11-28T07:31:13.817Z,2.42
2022-11-28T07:32:13.904Z,2.41
2022-11-28T07:33:13.836Z,2.44
2022-11-28T07:34:13.873Z,2.43
2022-11-28T07:35:13.929Z,2.43
2022-11-28T07:36:13.949Z,2.43
2022-11-28T07:37:13.974Z,2.42
2022-11-28T07:38:13.996Z,2.46
2022-11-28T07:39:14.030Z,2.47
2022-11-28T07:40:14.076Z,2.46
2022-11-28T07:41:14.084Z,2.46
2022-11-28T07:42:14.118Z,2.47
2022-11-28T07:43:14.143Z,2.5
2022-11-28T07:44:14.170Z,2.53
2022-11-28T07:45:14.214Z,2.53
2022-11-28T07:46:14.336Z,2.53
2022-11-28T07:47:14.256Z,2.53
2022-11-28T07:48:14.270Z,2.55
2022-11-28T07:49:14.303Z,2.55
2022-11-28T07:50:14.361Z,2.55
2022-11-28T07:51:14.374Z,2.54
2022-11-28T07:52:14.412Z,2.56
2022-11-28T07:53:14.444Z,2.57
2022-11-28T07:54:14.490Z,2.59
2022-11-28T07:55:14.494Z,2.59
2022-11-28T07:56:14.533Z,2.59
2022-11-28T07:57:14.573Z,2.59
2022-11-28T07:58:14.597Z,2.61
2022-11-28T07:59:14.651Z,2.62
2022-11-28T08:00:14.655Z,2.62
2022-11-28T08:01:14.691Z,2.66
2022-11-28T08:02:14.919Z,2.68
2022-11-28T08:03:14.751Z,2.68
2022-11-28T08:04:14.800Z,2.68
2022-11-28T08:05:14.914Z,2.68
2022-11-28T08:06:14.836Z,2.7
2022-11-28T08:07:14.925Z,2.74
2022-11-28T08:08:14.900Z,2.75
2022-11-28T08:09:14.940Z,2.74
2022-11-28T08:10:14.936Z,2.74
2022-11-28T08:11:14.980Z,2.74
2022-11-28T08:12:15.008Z,2.73
2022-11-28T08:13:15.040Z,2.75
2022-11-28T08:14:15.090Z,2.77
2022-11-28T08:15:15.099Z,2.78
2022-11-28T08:16:15.209Z,2.76
2022-11-28T08:17:15.162Z,2.77
2022-11-28T08:18:15.194Z,2.73
2022-11-28T08:19:15.248Z,2.74
2022-11-28T08:20:15.252Z,2.75
2022-11-28T08:21:15.286Z,2.76
2022-11-28T08:22:15.317Z,2.76
2022-11-28T08:23:15.349Z,2.74
2022-11-28T08:24:15.396Z,2.76
2022-11-28T08:25:15.428Z,2.79
2022-11-28T08:26:15.438Z,2.82
2022-11-28T08:27:15.496Z,2.85
2022-11-28T08:28:15.511Z,2.86
2022-11-28T08:29:15.550Z,2.85
2022-11-28T08:30:15.577Z,2.86
2022-11-28T08:31:15.664Z,2.86
2022-11-28T08:32:15.627Z,2.86
2022-11-28T08:33:15.757Z,2.85
2022-11-28T08:34:15.683Z,2.85
2022-11-28T08:35:15.737Z,2.87
2022-11-28T08:36:15.741Z,2.87
2022-11-28T08:37:15.765Z,2.88
2022-11-28T08:38:15.800Z,2.88
2022-11-28T08:39:24.129Z,2.86
2022-11-28T08:40:15.850Z,2.87
2022-11-28T08:41:15.895Z,2.87
2022-11-28T08:42:15.924Z,2.87
2022-11-28T08:43:15.947Z,2.88
2022-11-28T08:44:16.009Z,2.88
2022-11-28T08:45:16.041Z,2.87
2022-11-28T08:46:16.156Z,2.92
2022-11-28T08:47:16.089Z,2.92
2022-11-28T08:48:16.123Z,2.93
2022-11-28T08:49:16.154Z,2.99
2022-11-28T08:50:16.208Z,2.98
2022-11-28T08:51:16.215Z,2.97
2022-11-28T08:52:16.250Z,2.98
2022-11-28T08:53:18.581Z,2.98
2022-11-28T08:54:16.304Z,2.98
2022-11-28T08:55:16.354Z,2.97
2022-11-28T08:56:16.368Z,2.98
2022-11-28T08:57:16.410Z,2.98
2022-11-28T08:58:16.437Z,2.97
2022-11-28T08:59:16.492Z,3.06
2022-11-28T09:00:16.503Z,3.05
2022-11-28T09:01:16.611Z,3.04
2022-11-28T09:02:16.559Z,3.03
2022-11-28T09:03:16.598Z,3.03
2022-11-28T09:04:16.711Z,3.01
2022-11-28T09:05:16.672Z,3
2022-11-28T09:06:16.691Z,3.05
2022-11-28T09:07:16.766Z,3.05
2022-11-28T09:08:16.785Z,3.07
2022-11-28T09:09:16.771Z,3.07
2022-11-28T09:10:16.797Z,3.09
2022-11-28T09:11:16.843Z,3.07
2022-11-28T09:12:16.878Z,3.06
2022-11-28T09:13:16.906Z,3.14
2022-11-28T09:14:16.945Z,3.15
2022-11-28T09:15:16.974Z,3.2
2022-11-28T09:16:17.090Z,3.23
2022-11-28T09:17:17.096Z,3.22
2022-11-28T09:18:17.089Z,3.22
2022-11-28T09:19:17.114Z,3.22
2022-11-28T09:20:17.152Z,3.22
2022-11-28T09:21:17.166Z,3.22
2022-11-28T09:22:17.194Z,3.21
2022-11-28T09:23:17.223Z,3.22
2022-11-28T09:24:17.270Z,3.25
2022-11-28T09:25:17.280Z,3.27
2022-11-28T09:26:17.320Z,3.29
2022-11-28T09:27:17.354Z,3.29
2022-11-28T09:28:17.376Z,3.29
2022-11-28T09:29:17.421Z,3.28
2022-11-28T09:30:17.438Z,3.32
2022-11-28T09:31:17.588Z,3.29
2022-11-28T09:32:17.536Z,3.27
2022-11-28T09:33:17.533Z,3.32
2022-11-28T09:34:17.570Z,3.31
2022-11-28T09:35:17.601Z,3.32
2022-11-28T09:36:17.633Z,3.32
2022-11-28T09:37:17.693Z,3.3
2022-11-28T09:38:17.685Z,3.3
2022-11-28T09:39:17.723Z,3.3
2022-11-28T09:40:17.972Z,3.31
2022-11-28T09:41:17.794Z,3.3
2022-11-28T09:42:17.837Z,3.33
2022-11-28T09:43:17.846Z,3.32
2022-11-28T09:44:17.908Z,3.33
2022-11-28T09:45:17.902Z,3.33
2022-11-28T09:46:18.013Z,3.35
2022-11-28T09:47:17.972Z,3.4
2022-11-28T09:48:17.998Z,3.39
2022-11-28T09:49:18.042Z,3.41
2022-11-28T09:50:18.059Z,3.42
2022-11-28T09:51:18.087Z,3.39
2022-11-28T09:52:18.163Z,3.39
2022-11-28T09:53:18.145Z,3.4
2022-11-28T09:54:18.208Z,3.4
2022-11-28T09:55:18.211Z,3.4
2022-11-28T09:56:18.268Z,3.38
2022-11-28T09:57:18.281Z,3.37
2022-11-28T09:58:18.344Z,3.37
2022-11-28T09:59:18.337Z,3.39
2022-11-28T10:00:18.466Z,3.38
2022-11-28T10:01:18.381Z,3.39
2022-11-28T10:02:18.417Z,3.39
2022-11-28T10:03:18.537Z,3.39
2022-11-28T10:04:18.633Z,3.44
2022-11-28T10:05:18.539Z,3.48
2022-11-28T10:06:18.570Z,3.49
2022-11-28T10:07:18.629Z,3.5
2022-11-28T10:08:18.609Z,3.48
2022-11-28T10:09:18.635Z,3.47
2022-11-28T10:10:18.656Z,3.47
2022-11-28T10:11:18.714Z,3.48
2022-11-28T10:12:18.718Z,3.46
2022-11-28T10:13:18.746Z,3.45
2022-11-28T10:14:18.783Z,3.45
2022-11-28T10:15:18.831Z,3.44
2022-11-28T10:16:18.897Z,3.43
2022-11-28T10:17:18.978Z,3.46
2022-11-28T10:18:18.916Z,3.44
2022-11-28T10:20:18.967Z,3.45
2022-11-28T10:21:18.994Z,3.44
2022-11-28T10:22:19.044Z,3.45
2022-11-28T10:23:19.057Z,3.45
2022-11-28T10:24:19.103Z,3.45
2022-11-28T10:25:19.119Z,3.48
2022-11-28T10:26:19.143Z,3.48
2022-11-28T10:27:23.995Z,3.49
2022-11-28T10:28:19.214Z,3.52
2022-11-28T10:29:19.248Z,3.53
2022-11-28T10:30:19.286Z,3.53
2022-11-28T10:31:19.420Z,3.53
2022-11-28T10:32:19.364Z,3.55
2022-11-28T10:33:19.388Z,3.53
2022-11-28T10:34:19.435Z,3.52
2022-11-28T10:35:21.724Z,3.52
2022-11-28T10:36:19.488Z,3.53
2022-11-28T10:37:19.519Z,3.63
2022-11-28T10:38:19.542Z,3.63
2022-11-28T10:39:19.605Z,3.63
2022-11-28T10:40:19.641Z,3.63
2022-11-28T10:41:19.643Z,3.63
2022-11-28T10:42:19.677Z,3.64
2022-11-28T10:43:19.713Z,3.63
2022-11-28T10:44:21.704Z,3.64
2022-11-28T10:45:19.785Z,3.63
2022-11-28T10:46:19.907Z,3.63
2022-11-28T10:47:19.839Z,3.67
2022-11-28T10:48:39.656Z,3.71
2022-11-28T10:49:19.907Z,3.69
2022-11-28T10:50:19.962Z,3.69
2022-11-28T10:51:20.982Z,3.69
2022-11-28T10:52:19.999Z,3.74
2022-11-28T10:53:20.028Z,3.74
2022-11-28T10:54:20.082Z,3.73
2022-11-28T10:55:20.092Z,3.72
2022-11-28T10:56:20.124Z,3.73
2022-11-28T10:57:20.158Z,3.77
2022-11-28T10:58:20.191Z,3.79
2022-11-28T10:59:20.239Z,3.79
2022-11-28T11:00:20.256Z,3.8
2022-11-28T11:01:20.453Z,3.81
2022-11-28T11:02:20.323Z,3.78
2022-11-28T11:03:20.364Z,3.79
2022-11-28T11:04:20.434Z,3.81
2022-11-28T11:05:20.447Z,3.8
2022-11-28T11:06:20.454Z,3.85
2022-11-28T11:07:25.104Z,3.85
2022-11-28T11:08:20.646Z,3.85
2022-11-28T11:09:20.564Z,3.88
2022-11-28T11:10:20.575Z,3.89
2022-11-28T11:11:20.603Z,3.88
2022-11-28T11:12:20.643Z,3.89
2022-11-28T11:13:20.676Z,3.85
2022-11-28T11:14:20.731Z,3.86
2022-11-28T11:15:20.738Z,3.84
2022-11-28T11:16:20.836Z,3.83
2022-11-28T11:17:20.804Z,3.88
2022-11-28T11:18:20.832Z,3.91
2022-11-28T11:19:20.899Z,3.94
2022-11-28T11:20:20.916Z,3.96
2022-11-28T11:21:20.943Z,3.99
2022-11-28T11:22:20.969Z,4.01
2022-11-28T11:23:20.992Z,4
2022-11-28T11:24:21.056Z,4.01
2022-11-28T11:25:21.100Z,3.99
2022-11-28T11:26:21.095Z,4
2022-11-28T11:27:21.149Z,4.03
2022-11-28T11:28:21.170Z,4
2022-11-28T11:29:21.174Z,3.98
2022-11-28T11:30:21.205Z,4.01
2022-11-28T11:31:21.284Z,4.02
2022-11-28T11:32:21.286Z,4.03
2022-11-28T11:33:21.297Z,4.07
2022-11-28T11:34:21.332Z,4.07
2022-11-28T11:35:21.377Z,4.06
2022-11-28T11:36:21.395Z,4.08
2022-11-28T11:37:21.448Z,4.1
2022-11-28T11:38:21.456Z,4.07
2022-11-28T11:39:21.483Z,4.02
2022-11-28T11:40:21.512Z,4.02
2022-11-28T11:41:21.546Z,4.01
2022-11-28T11:42:21.589Z,4.01
2022-11-28T11:43:21.608Z,4.01
2022-11-28T11:44:21.640Z,4.05
2022-11-28T11:45:21.679Z,4.06
2022-11-28T11:46:21.847Z,4.05
2022-11-28T11:47:21.759Z,4.02
2022-11-28T11:48:21.752Z,4.03
2022-11-28T11:49:21.790Z,4.06
2022-11-28T11:50:21.842Z,4.06
2022-11-28T11:51:21.858Z,4.05
2022-11-28T11:52:21.880Z,4.03
2022-11-28T11:53:21.915Z,4.05
2022-11-28T11:54:21.947Z,4.06
2022-11-28T11:55:21.991Z,4.04
2022-11-28T11:56:21.999Z,4.04
2022-11-28T11:57:32.485Z,4.02
2022-11-28T11:58:22.069Z,3.99
2022-11-28T11:59:22.092Z,4
2022-11-28T12:00:22.152Z,4.01
2022-11-28T12:01:22.155Z,4.01
2022-11-28T12:02:22.234Z,4
2022-11-28T12:03:22.319Z,4
2022-11-28T12:05:22.292Z,3.98
2022-11-28T12:06:22.346Z,3.99
2022-11-28T12:07:22.378Z,3.98
2022-11-28T12:08:22.377Z,3.97
2022-11-28T12:09:22.401Z,4.01
2022-11-28T12:10:22.460Z,4.01
2022-11-28T12:11:22.472Z,4
2022-11-28T12:12:22.511Z,4
2022-11-28T12:13:22.536Z,4.01
2022-11-28T12:14:22.580Z,4
2022-11-28T12:15:22.590Z,4.01
2022-11-28T12:16:22.720Z,4.02
2022-11-28T12:17:46.902Z,4.05
2022-11-28T12:18:22.683Z,4.05
2022-11-28T12:19:22.737Z,4.04
2022-11-28T12:20:22.773Z,4.04
2022-11-28T12:21:22.784Z,4.04
2022-11-28T12:22:22.821Z,4.04
2022-11-28T12:23:22.848Z,4.03
2022-11-28T12:24:22.870Z,4.03
2022-11-28T12:25:22.886Z,4.03
2022-11-28T12:26:22.924Z,4.07
2022-11-28T12:27:22.962Z,4.07
2022-11-28T12:28:22.957Z,4.06
2022-11-28T12:29:22.976Z,4.05
2022-11-28T12:30:22.999Z,4.04
2022-11-28T12:31:23.135Z,4.07
2022-11-28T12:32:23.080Z,4.08
2022-11-28T12:33:23.081Z,4.11
2022-11-28T12:34:23.116Z,4.07
2022-11-28T12:35:23.152Z,4.02
2022-11-28T12:36:38.839Z,4.04
2022-11-28T12:38:09.054Z,4.06
2022-11-28T12:38:38.818Z,4.07
2022-11-28T12:39:39.097Z,4.05
2022-11-28T12:40:38.877Z,4.07
2022-11-28T12:41:38.905Z,4.06
2022-11-28T12:42:38.940Z,4.08
2022-11-28T12:43:38.963Z,4.06
2022-11-28T12:44:39.004Z,4.05
2022-11-28T12:45:39.040Z,4.03
2022-11-28T12:46:39.202Z,4.02
2022-11-28T12:47:39.111Z,4.03
2022-11-28T12:48:39.136Z,4.01
2022-11-28T12:49:39.152Z,4.02
2022-11-28T12:50:39.183Z,4.02
2022-11-28T12:51:39.211Z,4.04
2022-11-28T12:52:39.244Z,4.02
2022-11-28T12:53:39.286Z,4.03
2022-11-28T12:54:39.321Z,4.04
2022-11-28T12:55:39.363Z,4.03
2022-11-28T12:56:39.384Z,4.02
2022-11-28T12:57:39.424Z,4.02
2022-11-28T12:58:39.450Z,4.04
2022-11-28T12:59:39.484Z,4.01
2022-11-28T13:00:39.507Z,4.02
2022-11-28T13:01:39.595Z,4.04
2022-11-28T13:02:39.695Z,4
2022-11-28T13:03:39.605Z,4.01
2022-11-28T13:04:39.655Z,3.98
2022-11-28T13:05:39.666Z,4
2022-11-28T13:06:39.691Z,4.01
2022-11-28T13:07:39.761Z,4.03
2022-11-28T13:08:44.853Z,4.03
2022-11-28T13:09:39.763Z,4
2022-11-28T13:10:39.812Z,4.01
2022-11-28T13:11:39.823Z,4.02
2022-11-28T13:12:39.868Z,4.03
2022-11-28T13:13:39.890Z,4.05
2022-11-28T13:14:39.911Z,4.03
2022-11-28T13:15:40.017Z,4.02
2022-11-28T13:16:40.030Z,4.03
2022-11-28T13:17:40.015Z,4.03
2022-11-28T13:18:40.068Z,3.98
2022-11-28T13:19:40.075Z,4
2022-11-28T13:20:40.352Z,3.98
2022-11-28T13:21:40.171Z,3.97
2022-11-28T13:22:40.187Z,3.97
2022-11-28T13:23:40.226Z,4.01
2022-11-28T13:24:40.242Z,4.02